CheckWX is a tool to help pilots better visualize weather data.  It is not intended as a substitute for an official pre-flight weather briefing.

15:05:22 UTC

LLIB TAF
Ben Ya'akov Airport
Rosh Pina, Israel
TAF LLIB 071112Z 0712/0812 33010KT CAVOK BECMG 0716/0718 VRB04KT 9999 FEW040 BECMG 0722/0724 25004KT 9999 FEW025 PROB40 0800/0807 7000 -RA BKN015 BECMG 0807/0809 15006KT SCT030 TEMPO 0809/0812 7000 -RA BKN015 TX18/0712Z TN09/0802Z

Dec-7@
12:00 UTC

Dec-7 @ 12:00 UTC

Dec-7@
16:00 UTC

Dec-7 @ 16:00 UTC

TAF LLIB 071112Z 0712/0812 33010KT CAVOK
Wind
  • 330° at 10 KTS
Conditions
No significant weather
Cloud Levels
  • No significant clouds

Dec-7@
16:00 UTC

Dec-7 @ 16:00 UTC

Dec-7@
22:00 UTC

Dec-7 @ 22:00 UTC

BECMG 0716/0718 VRB04KT 9999 FEW040

Becoming

Becoming Conditions expected by Sat, Dec 7, 2019 @ 18:00 UTC

Wind
  • Variable at 4 KTS
Conditions
No significant weather
Cloud Levels
  • Few at 4,000' AGL

Dec-7@
22:00 UTC

Dec-7 @ 22:00 UTC

Dec-8@
07:00 UTC

Dec-8 @ 07:00 UTC

BECMG 0722/0724 25004KT 9999 FEW025

Becoming

Becoming Conditions expected by Sun, Dec 8, 2019 @ 00:00 UTC

Wind
  • 250° at 4 KTS
Conditions
No significant weather
Cloud Levels
  • Few at 2,500' AGL

Dec-8@
00:00 UTC

Dec-8 @ 00:00 UTC

Dec-8@
07:00 UTC

Dec-8 @ 07:00 UTC

PROB40 0800/0807 7000 -RA BKN015

Probable - 40% Likelihood

Probable - 40% Likelihood during this time.

Conditions
Light Rain
Cloud Levels
  • Broken at 1,500' AGL

Dec-8@
07:00 UTC

Dec-8 @ 07:00 UTC

Dec-8@
12:00 UTC

Dec-8 @ 12:00 UTC

BECMG 0807/0809 15006KT SCT030

Becoming

Becoming Conditions expected by Sun, Dec 8, 2019 @ 09:00 UTC

Wind
  • 150° at 6 KTS
Conditions
No significant weather
Cloud Levels
  • Scattered at 3,000' AGL

Dec-8@
09:00 UTC

Dec-8 @ 09:00 UTC

Dec-8@
12:00 UTC

Dec-8 @ 12:00 UTC

TEMPO 0809/0812 7000 -RA BKN015 TX18/0712Z TN09/0802Z

Temporary

Temporary Changes expected for less than half the time period

Conditions
Light Rain
Cloud Levels
  • Broken at 1,500' AGL